Time;durP1;ratioP1;P1;durP2;ratioP2;P2;SDS_P1;SDS_P2;PMS_P1;PMS_P2;Temp;Humidity;BMP_temperature;BMP_pressure;BME280_temperature;BME280_humidity;BME280_pressure;Samples;Min_cycle;Max_cycle;Signal;HPM_P1;HPM_P2
2021/11/21 00:00:44;;;;;;;1.55;0.55;;;;;;;6.53;100.00;99493.52;1683788;84;21392;-70
2021/11/21 00:03:11;;;;;;;1.60;0.60;;;;;;;6.58;100.00;99493.78;1665841;85;21088;-71
2021/11/21 00:05:44;;;;;;;2.30;0.57;;;;;;;6.69;100.00;99494.34;1654496;85;22345;-70
2021/11/21 00:08:11;;;;;;;2.08;0.80;;;;;;;6.05;100.00;99492.91;1669690;85;20992;-70
2021/11/21 00:10:39;;;;;;;2.27;1.02;;;;;;;5.42;100.00;99496.48;1659833;85;21079;-70
2021/11/21 00:13:24;;;;;;;3.40;1.27;;;;;;;5.60;100.00;99500.09;1669808;85;21005;-71
2021/11/21 00:15:52;;;;;;;3.22;1.57;;;;;;;5.66;100.00;99511.55;1670204;85;21023;-71
2021/11/21 00:18:20;;;;;;;4.15;1.60;;;;;;;5.64;100.00;99509.12;1669919;85;22394;-67
2021/11/21 00:20:49;;;;;;;5.87;1.45;;;;;;;5.48;100.00;99525.52;1670179;85;21025;-71
2021/11/21 00:23:34;;;;;;;3.72;1.45;;;;;;;5.86;100.00;99531.63;1670360;85;21031;-67
2021/11/21 00:26:03;;;;;;;3.67;1.80;;;;;;;5.93;100.00;99533.58;1671285;85;21560;-68
2021/11/21 00:28:31;;;;;;;3.50;1.70;;;;;;;5.56;100.00;99549.23;1670396;85;21038;-70
2021/11/21 00:30:58;;;;;;;5.75;2.45;;;;;;;5.13;100.00;99545.66;1670357;85;21206;-67
2021/11/21 00:33:25;;;;;;;4.87;2.55;;;;;;;5.04;100.00;99554.90;1669612;85;21059;-67
2021/11/21 00:35:53;;;;;;;5.30;2.20;;;;;;;4.86;100.00;99546.84;1670189;85;21623;-67
2021/11/21 00:38:21;;;;;;;4.75;2.35;;;;;;;4.96;100.00;99541.48;1669857;85;20932;-67
2021/11/21 00:40:49;;;;;;;5.00;2.40;;;;;;;4.88;100.00;99531.17;1669896;85;20912;-67
2021/11/21 00:43:16;;;;;;;4.28;2.15;;;;;;;5.64;100.00;99532.88;1670446;85;21270;-69
2021/11/21 00:45:43;;;;;;;4.08;1.70;;;;;;;5.39;100.00;99538.16;1670415;85;20957;-66
2021/11/21 00:48:11;;;;;;;4.60;1.82;;;;;;;5.35;100.00;99544.16;1670209;85;21539;-67
2021/11/21 00:50:38;;;;;;;4.20;1.90;;;;;;;5.64;100.00;99545.81;1664065;85;21023;-69
2021/11/21 00:53:06;;;;;;;4.90;2.10;;;;;;;5.26;100.00;99541.74;1670682;85;21083;-66
2021/11/21 00:55:42;;;;;;;3.47;1.60;;;;;;;5.09;100.00;99536.63;1669903;85;21173;-70
2021/11/21 00:58:10;;;;;;;3.42;1.62;;;;;;;4.68;100.00;99533.78;1670314;85;22392;-65
2021/11/21 01:00:40;;;;;;;3.27;1.60;;;;;;;4.67;100.00;99538.64;1653700;85;21067;-65
2021/11/21 01:03:08;;;;;;;2.30;1.00;;;;;;;5.00;100.00;99537.63;1672093;85;21138;-65
2021/11/21 01:05:35;;;;;;;2.92;0.80;;;;;;;4.90;100.00;99549.10;1678291;85;21068;-65
2021/11/21 01:08:03;;;;;;;2.47;1.00;;;;;;;5.15;100.00;99540.31;1678625;85;21169;-64
2021/11/21 01:10:32;;;;;;;9.20;2.15;;;;;;;5.61;100.00;99542.60;1677348;84;21070;-65
2021/11/21 01:13:00;;;;;;;1.65;0.60;;;;;;;5.86;100.00;99532.12;1673969;85;21074;-64
2021/11/21 01:15:27;;;;;;;2.40;0.40;;;;;;;5.45;100.00;99537.47;1677276;84;20913;-65
2021/11/21 01:17:55;;;;;;;2.60;0.70;;;;;;;5.43;100.00;99531.69;1681267;85;21130;-64
2021/11/21 01:20:24;;;;;;;2.10;0.75;;;;;;;5.15;100.00;99536.92;1679821;85;22776;-65
2021/11/21 01:23:10;;;;;;;2.52;0.70;;;;;;;5.38;100.00;99536.56;1680873;85;21098;-65
2021/11/21 01:25:37;;;;;;;2.67;0.72;;;;;;;3.33;100.00;99547.67;1663817;85;21098;-65
2021/11/21 01:28:04;;;;;;;2.45;0.60;;;;;;;2.92;100.00;99543.11;1680186;85;20955;-65
2021/11/21 01:30:33;;;;;;;2.10;0.70;;;;;;;2.97;100.00;99546.52;1680739;85;20995;-65
2021/11/21 01:33:00;;;;;;;1.62;0.70;;;;;;;2.57;100.00;99547.83;1680575;85;21105;-68
2021/11/21 01:35:35;;;;;;;0.80;0.35;;;;;;;2.85;100.00;99551.59;1680719;85;20983;-67
2021/11/21 01:38:03;;;;;;;2.40;0.75;;;;;;;2.73;100.00;99551.03;1675486;85;21032;-66
2021/11/21 01:40:30;;;;;;;2.67;0.60;;;;;;;3.15;100.00;99544.70;1680498;85;20936;-66
2021/11/21 01:43:09;;;;;;;1.92;0.60;;;;;;;3.43;100.00;99543.70;1680506;85;20996;-66
2021/11/21 01:45:36;;;;;;;2.22;0.80;;;;;;;3.71;100.00;99541.70;1662677;85;21165;-64
2021/11/21 01:48:05;;;;;;;1.65;0.50;;;;;;;3.49;100.00;99544.38;1680881;85;21112;-68
2021/11/21 01:50:35;;;;;;;1.90;0.78;;;;;;;3.59;100.00;99547.62;1680756;85;20956;-70
2021/11/21 01:53:03;;;;;;;2.33;0.80;;;;;;;3.90;100.00;99549.17;1680865;84;20952;-66
2021/11/21 01:55:31;;;;;;;2.83;0.72;;;;;;;3.95;100.00;99558.55;1680719;85;21106;-71
2021/11/21 01:57:58;;;;;;;1.80;0.70;;;;;;;4.15;100.00;99563.74;1680859;85;21132;-65
2021/11/21 02:00:28;;;;;;;1.98;0.50;;;;;;;4.19;100.00;99573.75;1680497;85;21050;-66
2021/11/21 02:02:55;;;;;;;2.65;0.70;;;;;;;3.84;100.00;99587.20;1680630;85;20940;-70
2021/11/21 02:05:23;;;;;;;2.37;1.00;;;;;;;3.89;100.00;99579.31;1671271;85;21339;-72
2021/11/21 02:07:50;;;;;;;2.25;0.80;;;;;;;4.08;100.00;99579.52;1670049;85;21170;-66
2021/11/21 02:10:21;;;;;;;2.45;1.12;;;;;;;4.18;100.00;99590.20;1669829;85;21236;-66
2021/11/21 02:12:51;;;;;;;2.33;0.80;;;;;;;4.34;100.00;99596.67;1670549;85;21040;-71
2021/11/21 02:15:21;;;;;;;1.57;0.60;;;;;;;4.43;100.00;99595.70;1669350;85;21702;-69
2021/11/21 02:17:49;;;;;;;3.15;0.98;;;;;;;3.70;100.00;99592.45;1670834;85;21063;-67
2021/11/21 02:20:28;;;;;;;1.87;0.70;;;;;;;3.64;100.00;99582.30;1668923;85;21534;-66
2021/11/21 02:23:07;;;;;;;1.98;0.53;;;;;;;3.87;100.00;99579.16;1670262;85;21127;-71
2021/11/21 02:25:35;;;;;;;4.37;0.90;;;;;;;4.17;100.00;99579.53;1669418;85;21774;-66
2021/11/21 02:28:02;;;;;;;2.87;1.12;;;;;;;3.77;100.00;99587.49;1670052;85;21027;-66
2021/11/21 02:30:30;;;;;;;3.85;1.10;;;;;;;3.54;100.00;99584.17;1669768;85;21122;-67
2021/11/21 02:32:58;;;;;;;4.45;1.60;;;;;;;3.64;100.00;99591.80;1669571;85;21443;-71
2021/11/21 02:35:26;;;;;;;3.70;1.02;;;;;;;3.66;100.00;99586.80;1669240;85;21222;-67
2021/11/21 02:37:53;;;;;;;3.02;0.85;;;;;;;3.80;100.00;99585.90;1670594;85;20960;-66
2021/11/21 02:40:20;;;;;;;3.65;1.10;;;;;;;3.97;100.00;99582.39;1669972;85;20979;-66
2021/11/21 02:43:06;;;;;;;2.75;0.90;;;;;;;4.26;100.00;99582.48;1669806;85;21134;-72
2021/11/21 02:45:33;;;;;;;2.65;0.93;;;;;;;4.25;100.00;99582.96;1670199;85;21526;-66
2021/11/21 02:48:00;;;;;;;4.45;1.75;;;;;;;3.76;100.00;99588.46;1671423;85;22252;-65
2021/11/21 02:53:18;;;;;;;4.42;1.80;;;;;;;3.69;100.00;99601.64;1669934;85;20991;-66
2021/11/21 02:55:45;;;;;;;4.28;1.67;;;;;;;3.57;100.00;99612.70;1670643;85;20928;-66
2021/11/21 02:58:13;;;;;;;3.98;1.57;;;;;;;3.32;100.00;99617.70;1669470;85;20941;-69
2021/11/21 03:00:40;;;;;;;3.30;1.62;;;;;;;3.39;100.00;99616.62;1670957;85;21133;-64
2021/11/21 03:03:07;;;;;;;6.03;1.55;;;;;;;3.41;100.00;99621.16;1670527;85;21542;-65
2021/11/21 03:05:35;;;;;;;3.40;1.60;;;;;;;3.58;100.00;99615.11;1653785;86;21564;-64
2021/11/21 03:08:03;;;;;;;3.42;1.10;;;;;;;3.44;100.00;99621.31;1667612;84;21505;-70
2021/11/21 03:10:34;;;;;;;3.00;1.30;;;;;;;3.40;100.00;99625.48;1669579;85;21104;-67
2021/11/21 03:13:04;;;;;;;5.83;1.80;;;;;;;3.48;100.00;99625.20;1670824;85;21234;-65
2021/11/21 03:15:33;;;;;;;4.08;1.85;;;;;;;3.57;100.00;99619.95;1670169;85;21580;-68
2021/11/21 03:18:00;;;;;;;3.87;1.90;;;;;;;3.53;100.00;99627.66;1670060;85;20912;-69
2021/11/21 03:20:29;;;;;;;6.28;2.17;;;;;;;3.46;100.00;99625.36;1669232;85;21043;-71
2021/11/21 03:22:58;;;;;;;3.05;1.37;;;;;;;3.39;100.00;99619.20;1669670;85;21083;-63
2021/11/21 03:25:26;;;;;;;4.20;1.20;;;;;;;3.43;100.00;99618.42;1670217;85;21213;-63
2021/11/21 03:27:53;;;;;;;5.05;1.70;;;;;;;3.40;100.00;99628.53;1669625;85;20968;-68
2021/11/21 03:30:21;;;;;;;4.60;1.90;;;;;;;3.25;100.00;99636.00;1669228;85;21004;-69
2021/11/21 03:32:49;;;;;;;7.40;2.62;;;;;;;3.36;100.00;99629.31;1670268;85;21012;-66
2021/11/21 03:35:35;;;;;;;4.53;2.10;;;;;;;3.50;100.00;99625.87;1669293;85;21470;-64
2021/11/21 03:38:02;;;;;;;5.03;2.15;;;;;;;3.55;100.00;99627.02;1669417;85;21143;-63
2021/11/21 03:40:30;;;;;;;5.78;2.08;;;;;;;3.25;100.00;99639.06;1669238;85;20984;-63
2021/11/21 03:43:00;;;;;;;5.75;2.10;;;;;;;3.58;100.00;99635.73;1670646;85;21181;-66
2021/11/21 03:45:27;;;;;;;4.55;2.10;;;;;;;3.66;100.00;99629.33;1670117;85;21095;-63
2021/11/21 03:48:12;;;;;;;4.92;2.02;;;;;;;3.63;100.00;99624.47;1669464;85;21041;-65
2021/11/21 03:50:39;;;;;;;4.50;1.72;;;;;;;3.69;100.00;99627.41;1669761;85;21168;-63
2021/11/21 03:53:06;;;;;;;3.62;1.40;;;;;;;4.35;100.00;99622.30;1670626;85;20976;-63
2021/11/21 03:55:34;;;;;;;7.10;1.32;;;;;;;4.82;100.00;99626.89;1669304;85;21024;-63
2021/11/21 03:58:01;;;;;;;6.80;2.00;;;;;;;3.96;100.00;99620.75;1670389;85;21405;-63
2021/11/21 04:00:29;;;;;;;3.17;1.20;;;;;;;3.70;100.00;99625.96;1662405;85;21503;-65
2021/11/21 04:02:56;;;;;;;4.50;1.90;;;;;;;3.50;100.00;99633.11;1636557;86;21136;-65
2021/11/21 04:05:25;;;;;;;4.17;1.72;;;;;;;3.00;100.00;99645.34;1632259;87;21057;-63
2021/11/21 04:07:52;;;;;;;4.45;1.55;;;;;;;3.14;100.00;99647.84;1632275;85;21001;-66
2021/11/21 04:10:19;;;;;;;3.80;1.30;;;;;;;3.17;100.00;99644.97;1632293;87;21078;-65
2021/11/21 04:12:47;;;;;;;2.65;1.25;;;;;;;3.15;100.00;99641.27;1632276;87;21012;-63
2021/11/21 04:15:17;;;;;;;5.35;1.40;;;;;;;3.38;100.00;99639.48;1636047;85;21157;-65
2021/11/21 04:17:45;;;;;;;6.70;2.27;;;;;;;3.42;100.00;99640.80;1674506;85;21019;-68
2021/11/21 04:20:13;;;;;;;3.45;1.40;;;;;;;3.47;100.00;99640.34;1679389;85;21054;-65
2021/11/21 04:22:40;;;;;;;5.42;1.67;;;;;;;3.83;100.00;99643.59;1676561;83;20999;-65
2021/11/21 04:25:07;;;;;;;4.62;1.30;;;;;;;3.83;100.00;99642.31;1674050;83;21003;-65
2021/11/21 04:27:37;;;;;;;3.95;1.17;;;;;;;3.88;100.00;99640.06;1674199;83;21104;-70
2021/11/21 04:30:06;;;;;;;4.47;1.17;;;;;;;4.02;100.00;99630.45;1672027;85;21738;-65
2021/11/21 04:32:37;;;;;;;2.80;1.10;;;;;;;4.12;100.00;99611.77;1666423;83;21608;-65
2021/11/21 04:35:09;;;;;;;4.55;1.52;;;;;;;4.38;100.00;99608.29;1671777;85;20960;-65
2021/11/21 04:37:36;;;;;;;4.00;1.70;;;;;;;4.59;100.00;99607.84;1674280;83;21010;-72
2021/11/21 04:40:05;;;;;;;3.50;1.30;;;;;;;4.57;100.00;99620.89;1672353;85;22585;-65
2021/11/21 04:42:34;;;;;;;3.10;1.30;;;;;;;4.58;100.00;99624.28;1674738;83;21028;-69
2021/11/21 04:45:01;;;;;;;2.83;1.05;;;;;;;4.77;100.00;99633.48;1673147;83;21027;-66
2021/11/21 04:47:28;;;;;;;3.62;1.25;;;;;;;4.96;100.00;99643.98;1672822;83;21524;-68
2021/11/21 04:49:57;;;;;;;4.05;1.50;;;;;;;5.08;100.00;99651.27;1667528;85;22381;-65
2021/11/21 04:52:24;;;;;;;4.87;1.40;;;;;;;5.13;100.00;99654.16;1640110;84;21171;-65
2021/11/21 04:54:52;;;;;;;4.03;1.40;;;;;;;5.08;100.00;99662.09;1629391;85;20860;-66
2021/11/21 04:57:24;;;;;;;3.83;1.55;;;;;;;4.93;100.00;99668.38;1672474;85;21004;-72
2021/11/21 04:59:55;;;;;;;4.08;1.30;;;;;;;5.18;100.00;99677.41;1672146;85;21027;-66
2021/11/21 05:02:22;;;;;;;3.30;1.27;;;;;;;5.20;100.00;99678.88;1679735;83;20908;-70
2021/11/21 05:04:49;;;;;;;4.10;1.40;;;;;;;5.25;100.00;99674.50;1679662;85;21081;-67
2021/11/21 05:07:16;;;;;;;4.42;1.57;;;;;;;5.75;100.00;99678.12;1677294;85;21019;-72
2021/11/21 05:09:45;;;;;;;3.00;1.20;;;;;;;6.12;100.00;99673.36;1679225;84;22301;-66
2021/11/21 05:12:12;;;;;;;3.75;1.37;;;;;;;6.28;100.00;99672.78;1679841;84;20954;-66
2021/11/21 05:14:39;;;;;;;4.50;1.30;;;;;;;6.31;100.00;99678.12;1678681;84;20939;-66
2021/11/21 05:17:06;;;;;;;5.22;1.90;;;;;;;6.29;100.00;99680.89;1680218;84;21217;-66
2021/11/21 05:19:33;;;;;;;4.20;1.95;;;;;;;6.57;100.00;99667.46;1679443;84;20987;-66
2021/11/21 05:22:01;;;;;;;5.62;1.65;;;;;;;6.41;100.00;99676.13;1679819;84;21020;-66
2021/11/21 05:24:29;;;;;;;5.30;1.40;;;;;;;5.82;100.00;99670.52;1679463;84;21083;-69
2021/11/21 05:26:56;;;;;;;4.65;2.20;;;;;;;5.88;100.00;99667.27;1679464;84;21501;-66
2021/11/21 05:29:23;;;;;;;6.12;2.50;;;;;;;6.28;100.00;99671.98;1679203;84;21126;-67
2021/11/21 05:31:50;;;;;;;5.10;2.15;;;;;;;5.88;100.00;99667.27;1679729;84;21029;-64
2021/11/21 05:34:17;;;;;;;5.08;2.15;;;;;;;5.83;100.00;99675.54;1680498;84;21007;-64
2021/11/21 05:36:45;;;;;;;5.22;2.50;;;;;;;5.94;100.00;99674.38;1679557;84;20956;-68
2021/11/21 05:39:13;;;;;;;7.28;3.37;;;;;;;6.11;100.00;99674.34;1679910;84;21678;-67
2021/11/21 05:41:40;;;;;;;9.05;5.53;;;;;;;5.98;100.00;99673.06;1679659;84;22262;-68
2021/11/21 05:44:10;;;;;;;7.10;4.40;;;;;;;6.19;100.00;99680.77;1679352;84;21612;-67
2021/11/21 05:46:37;;;;;;;8.13;3.98;;;;;;;6.66;100.00;99679.86;1669364;84;21489;-70
2021/11/21 05:49:04;;;;;;;8.70;3.47;;;;;;;7.25;100.00;99675.70;1679298;84;21007;-69
2021/11/21 05:51:31;;;;;;;6.00;2.85;;;;;;;7.87;100.00;99674.58;1679632;84;21308;-69
2021/11/21 05:53:59;;;;;;;6.40;3.05;;;;;;;8.26;100.00;99679.48;1680367;84;21789;-69
2021/11/21 05:56:27;;;;;;;5.95;2.42;;;;;;;8.72;100.00;99677.11;1679647;84;21510;-69
2021/11/21 05:58:54;;;;;;;8.15;3.80;;;;;;;8.97;100.00;99675.73;1680003;84;21035;-71
2021/11/21 06:01:30;;;;;;;8.78;5.00;;;;;;;9.26;100.00;99669.58;1683104;83;21037;-71
2021/11/21 06:04:03;;;;;;;8.57;4.30;;;;;;;9.52;100.00;99667.36;1709275;83;21060;-69
2021/11/21 06:06:31;;;;;;;6.30;2.93;;;;;;;9.30;100.00;99668.70;1708629;82;21366;-70
2021/11/21 06:09:00;;;;;;;5.23;2.63;;;;;;;8.78;100.00;99667.25;1692709;83;21093;-71
2021/11/21 06:11:27;;;;;;;7.27;2.47;;;;;;;9.00;100.00;99659.76;1710776;82;21042;-73
2021/11/21 06:13:55;;;;;;;3.97;2.03;;;;;;;9.00;100.00;99656.36;1710838;83;22668;-72
2021/11/21 06:16:22;;;;;;;10.03;5.50;;;;;;;8.97;100.00;99657.53;1711771;82;21200;-72
2021/11/21 06:18:50;;;;;;;17.37;10.33;;;;;;;9.30;100.00;99657.50;1709477;82;21148;-74
2021/11/21 06:21:17;;;;;;;17.23;10.60;;;;;;;9.34;100.00;99656.13;1711301;83;21237;-73
2021/11/21 06:23:45;;;;;;;12.33;6.30;;;;;;;10.33;100.00;99651.94;1711311;83;21178;-72
2021/11/21 06:26:12;;;;;;;9.23;4.33;;;;;;;10.53;100.00;99650.20;1711333;83;21137;-71
2021/11/21 06:28:40;;;;;;;9.07;4.53;;;;;;;10.79;100.00;99641.60;1711010;83;21194;-70
2021/11/21 06:31:07;;;;;;;10.30;5.87;;;;;;;11.14;100.00;99654.47;1711133;83;21370;-72
2021/11/21 06:33:35;;;;;;;8.90;5.17;;;;;;;11.06;99.55;99652.88;1691675;83;21832;-71
2021/11/21 06:36:04;;;;;;;9.00;5.40;;;;;;;11.34;98.20;99646.62;1711509;83;21746;-69
2021/11/21 06:38:31;;;;;;;10.87;5.87;;;;;;;11.54;95.42;99648.69;1711187;83;21772;-72
2021/11/21 06:40:59;;;;;;;9.67;5.73;;;;;;;12.15;89.35;99652.75;1711183;83;21555;-74
2021/11/21 06:43:26;;;;;;;9.13;5.47;;;;;;;12.61;84.38;99655.62;1703371;83;21698;-69
2021/11/21 06:45:54;;;;;;;8.77;4.57;;;;;;;13.03;79.05;99652.00;1711544;83;20961;-70
2021/11/21 06:48:22;;;;;;;8.27;5.27;;;;;;;13.42;73.11;99656.66;1711492;83;21619;-69
2021/11/21 06:50:51;;;;;;;7.47;4.07;;;;;;;13.18;72.15;99654.30;1710354;83;21016;-70
2021/11/21 06:53:21;;;;;;;8.17;4.53;;;;;;;13.32;68.36;99659.23;1710628;83;21079;-69
2021/11/21 06:55:48;;;;;;;8.43;4.60;;;;;;;12.96;65.27;99653.38;1709948;82;21143;-69
2021/11/21 06:58:15;;;;;;;10.47;5.57;;;;;;;12.88;67.05;99653.66;1701081;82;20859;-68
2021/11/21 07:00:43;;;;;;;11.20;6.47;;;;;;;12.47;74.42;99662.75;1700769;82;21016;-71
2021/11/21 07:03:10;;;;;;;13.77;9.90;;;;;;;12.47;76.15;99661.95;1700073;83;21110;-69
2021/11/21 07:05:39;;;;;;;10.60;5.77;;;;;;;12.48;71.22;99661.73;1693634;82;21019;-69
2021/11/21 07:08:06;;;;;;;9.90;5.83;;;;;;;12.22;68.39;99667.09;1679282;84;21213;-69
2021/11/21 07:10:34;;;;;;;9.97;5.50;;;;;;;11.97;67.54;99665.67;1699756;83;21023;-68
2021/11/21 07:13:02;;;;;;;11.47;5.27;;;;;;;11.30;73.80;99671.02;1704105;83;20869;-70
2021/11/21 07:15:34;;;;;;;8.87;5.33;;;;;;;11.07;79.07;99682.36;1701431;83;21008;-69
2021/11/21 07:18:21;;;;;;;8.17;4.83;;;;;;;11.01;85.20;99674.81;1705334;83;21688;-69
2021/11/21 07:20:48;;;;;;;11.70;6.27;;;;;;;11.37;87.37;99675.73;1704244;83;21471;-69
2021/11/21 07:23:19;;;;;;;9.90;5.20;;;;;;;11.52;84.78;99672.11;1704579;83;21840;-65
2021/11/21 07:25:43;;;;;;;11.23;5.63;;;;;;;11.64;83.58;99680.41;1704923;83;21787;-68
2021/11/21 07:28:12;;;;;;;10.83;6.43;;;;;;;11.79;81.25;99679.38;1704899;83;21963;-64
2021/11/21 07:30:40;;;;;;;13.37;6.40;;;;;;;11.99;77.93;99675.42;1656168;85;21550;-67
2021/11/21 07:33:07;;;;;;;11.70;6.40;;;;;;;11.99;77.93;99675.42;1704866;83;21480;-71
2021/11/21 07:35:36;;;;;;;11.23;5.53;;;;;;;11.80;80.08;99676.55;1695750;82;21401;-65
2021/11/21 07:38:04;;;;;;;11.23;5.47;;;;;;;11.80;80.08;99676.55;1696787;82;21409;-67
2021/11/21 07:40:31;;;;;;;12.87;5.50;;;;;;;12.06;82.21;99678.82;1663540;84;21277;-67
2021/11/21 07:42:58;;;;;;;11.60;5.77;;;;;;;12.17;81.14;99676.36;1704733;83;21906;-64
2021/11/21 07:45:34;;;;;;;8.50;5.17;;;;;;;12.29;82.44;99667.88;1704650;83;21507;-69
2021/11/21 07:48:01;;;;;;;10.53;5.13;;;;;;;12.55;77.38;99670.86;1705077;83;21296;-63
2021/11/21 07:50:29;;;;;;;9.60;4.97;;;;;;;12.91;71.75;99671.00;1703333;83;21339;-65
2021/11/21 07:52:58;;;;;;;10.03;4.80;;;;;;;12.10;72.44;99676.89;1689283;83;22389;-64
2021/11/21 07:55:25;;;;;;;8.87;4.67;;;;;;;12.17;74.22;99669.83;1702991;83;21803;-67
2021/11/21 07:57:53;;;;;;;8.13;4.60;;;;;;;12.60;71.50;99663.97;1705271;83;21782;-66
2021/11/21 08:00:20;;;;;;;8.20;4.73;;;;;;;12.68;70.61;99668.15;1693937;83;21381;-69
2021/11/21 08:02:47;;;;;;;9.90;4.73;;;;;;;12.68;70.61;99668.15;1694414;82;21442;-66
2021/11/21 08:05:38;;;;;;;8.83;4.33;;;;;;;12.78;70.37;99657.23;1682927;82;21444;-65
2021/11/21 08:08:06;;;;;;;8.23;4.30;;;;;;;12.95;69.81;99646.53;1677770;84;21778;-65
2021/11/21 08:10:33;;;;;;;7.60;3.47;;;;;;;12.62;69.39;99646.27;1668561;83;21350;-66
2021/11/21 08:13:01;;;;;;;10.13;4.20;;;;;;;12.75;71.11;99636.73;1670100;83;21371;-63
2021/11/21 08:15:28;;;;;;;7.27;3.90;;;;;;;12.75;71.11;99636.73;1673468;83;21385;-63
2021/11/21 08:17:56;;;;;;;7.77;3.27;;;;;;;12.51;72.49;99649.56;1672057;85;21361;-69
2021/11/21 08:20:23;;;;;;;6.23;3.20;;;;;;;12.80;70.31;99638.98;1673400;83;21555;-63
2021/11/21 08:22:50;;;;;;;8.40;3.03;;;;;;;12.86;71.25;99639.97;1671718;85;21426;-63
2021/11/21 08:25:19;;;;;;;6.47;3.30;;;;;;;13.12;66.12;99635.03;1672385;85;21941;-65
2021/11/21 08:27:46;;;;;;;7.70;3.10;;;;;;;13.07;64.93;99646.66;1672214;85;21430;-70
2021/11/21 08:30:13;;;;;;;6.83;3.20;;;;;;;13.49;61.66;99637.75;1672754;83;21339;-65
2021/11/21 08:32:41;;;;;;;5.90;3.03;;;;;;;13.53;62.58;99633.69;1671760;85;21575;-63
2021/11/21 08:35:08;;;;;;;5.80;2.90;;;;;;;13.53;62.58;99633.69;1675003;83;21542;-63
2021/11/21 08:37:36;;;;;;;6.83;3.23;;;;;;;13.41;62.34;99620.99;1673630;83;21556;-64
2021/11/21 08:40:06;;;;;;;6.27;2.73;;;;;;;13.33;62.67;99624.69;1672106;85;21907;-70
2021/11/21 08:42:34;;;;;;;8.17;3.73;;;;;;;12.90;64.04;99628.86;1673930;83;21763;-66
2021/11/21 08:45:06;;;;;;;9.37;4.20;;;;;;;13.15;61.31;99609.75;1674072;84;21945;-62
2021/11/21 08:47:36;;;;;;;6.10;2.95;;;;;;;13.15;61.31;99609.75;1671449;84;22070;-63
2021/11/21 08:50:06;;;;;;;8.20;3.60;;;;;;;13.11;61.38;99617.74;1670316;84;20959;-71
2021/11/21 08:52:35;;;;;;;6.80;3.17;;;;;;;13.08;62.19;99616.86;1663167;84;22005;-67
2021/11/21 08:55:04;;;;;;;6.07;2.63;;;;;;;13.64;59.40;99605.46;1666882;84;21054;-64
2021/11/21 08:57:31;;;;;;;8.10;2.87;;;;;;;13.64;59.40;99605.46;1634635;84;21627;-63
2021/11/21 09:00:04;;;;;;;5.43;2.30;;;;;;;13.56;59.11;99618.82;1626091;86;21967;-68
2021/11/21 09:02:27;;;;;;;7.83;2.40;;;;;;;13.61;57.98;99604.58;1623398;85;21509;-61
2021/11/21 09:04:55;;;;;;;7.20;2.70;;;;;;;13.42;59.19;99604.29;1681402;83;21542;-61
2021/11/21 09:07:22;;;;;;;7.13;2.10;;;;;;;13.37;59.28;99603.13;1681964;85;21382;-65
2021/11/21 09:09:51;;;;;;;9.60;2.80;;;;;;;13.15;59.61;99602.70;1673168;85;21331;-62
2021/11/21 09:12:18;;;;;;;6.43;2.47;;;;;;;13.33;60.09;99600.66;1670898;85;21229;-67
2021/11/21 09:14:46;;;;;;;7.50;2.80;;;;;;;13.56;58.52;99602.63;1667469;84;21417;-65
2021/11/21 09:17:13;;;;;;;7.60;2.83;;;;;;;13.38;59.64;99591.63;1630350;86;21290;-64
2021/11/21 09:19:41;;;;;;;7.40;2.40;;;;;;;13.70;58.62;99590.16;1600700;88;21360;-63
2021/11/21 09:22:08;;;;;;;5.23;1.90;;;;;;;13.52;59.02;99586.23;1622715;88;21857;-68
2021/11/21 09:24:35;;;;;;;7.10;2.83;;;;;;;13.30;59.53;99589.30;1620181;87;22626;-62
2021/11/21 09:27:02;;;;;;;7.57;2.83;;;;;;;13.10;61.77;99588.64;1617433;87;21320;-65
2021/11/21 09:29:31;;;;;;;5.43;2.40;;;;;;;12.86;64.40;99588.45;1667972;84;21327;-67
2021/11/21 09:31:59;;;;;;;7.53;2.60;;;;;;;12.79;64.49;99594.24;1671503;85;21250;-61
2021/11/21 09:34:28;;;;;;;7.33;2.70;;;;;;;12.57;67.04;99592.48;1669564;85;21241;-69
2021/11/21 09:36:55;;;;;;;7.07;3.13;;;;;;;11.76;75.97;99600.14;1671468;85;21343;-61
2021/11/21 09:39:22;;;;;;;7.90;2.53;;;;;;;11.76;77.54;99600.94;1662729;84;21139;-61
2021/11/21 09:41:50;;;;;;;8.60;2.90;;;;;;;11.77;80.63;99604.35;1662567;84;21239;-67
2021/11/21 09:44:17;;;;;;;9.60;3.27;;;;;;;11.61;84.04;99609.53;1666667;84;21260;-63
2021/11/21 09:46:45;;;;;;;8.60;3.13;;;;;;;11.47;87.80;99602.73;1670928;85;21286;-62
2021/11/21 09:49:15;;;;;;;9.10;3.00;;;;;;;11.49;88.01;99596.31;1672092;85;21306;-61
2021/11/21 09:51:42;;;;;;;9.20;3.30;;;;;;;11.91;82.96;99590.27;1671645;85;21301;-62
2021/11/21 09:54:09;;;;;;;14.17;5.30;;;;;;;11.81;80.49;99576.30;1672843;85;21142;-69
2021/11/21 09:56:36;;;;;;;17.97;7.10;;;;;;;11.71;81.69;99574.66;1672505;85;21153;-62
2021/11/21 09:59:03;;;;;;;15.87;6.33;;;;;;;11.67;82.07;99561.73;1672924;85;21721;-63
2021/11/21 10:01:42;;;;;;;8.83;3.87;;;;;;;11.65;83.71;99561.13;1672804;85;21815;-63
2021/11/21 10:04:12;;;;;;;8.20;2.90;;;;;;;11.54;86.70;99554.73;1671498;84;21188;-69
2021/11/21 10:06:48;;;;;;;7.57;3.73;;;;;;;11.59;87.49;99534.52;1659688;85;21158;-62
2021/11/21 10:09:19;;;;;;;9.47;3.40;;;;;;;11.50;88.98;99530.55;1667956;85;21758;-60
2021/11/21 10:12:01;;;;;;;11.00;4.28;;;;;;;11.35;90.73;99534.21;1672804;85;21270;-60
2021/11/21 10:14:29;;;;;;;11.63;3.50;;;;;;;11.20;95.70;99531.84;1675434;85;21176;-62
2021/11/21 10:16:56;;;;;;;10.27;4.00;;;;;;;11.31;96.46;99527.80;1650913;85;21375;-60
2021/11/21 10:19:23;;;;;;;10.03;4.23;;;;;;;11.36;96.73;99521.45;1654312;86;21327;-63
2021/11/21 10:21:58;;;;;;;11.40;3.93;;;;;;;11.63;97.53;99522.66;1680635;84;21186;-67
2021/11/21 10:24:28;;;;;;;13.07;4.53;;;;;;;11.73;93.48;99524.33;1679130;84;21714;-61
2021/11/21 10:27:11;;;;;;;13.73;4.67;;;;;;;11.72;96.26;99525.34;1664849;84;21149;-61
2021/11/21 10:29:44;;;;;;;12.17;3.90;;;;;;;11.74;97.66;99530.34;1663208;84;21143;-70
2021/11/21 10:32:20;;;;;;;12.53;4.60;;;;;;;12.09;95.28;99524.28;1665119;84;21340;-61
2021/11/21 10:34:54;;;;;;;10.07;4.43;;;;;;;12.00;96.81;99532.05;1656018;84;21165;-61
2021/11/21 10:37:30;;;;;;;9.83;4.10;;;;;;;12.07;97.17;99529.70;1664066;84;21097;-68
2021/11/21 10:40:04;;;;;;;11.63;4.47;;;;;;;12.10;97.64;99520.14;1645313;86;22437;-61
2021/11/21 10:42:32;;;;;;;10.10;4.43;;;;;;;12.21;100.00;99525.71;1664348;84;21197;-60
2021/11/21 10:44:59;;;;;;;11.53;4.60;;;;;;;12.22;98.57;99512.94;1643556;86;21258;-68
2021/11/21 10:47:44;;;;;;;11.50;4.37;;;;;;;12.38;98.53;99511.89;1627075;84;21315;-61
2021/11/21 10:50:14;;;;;;;15.43;5.50;;;;;;;12.82;93.41;99506.72;1658357;84;21189;-61
2021/11/21 10:52:47;;;;;;;13.87;5.80;;;;;;;12.81;92.93;99507.23;1676199;83;21164;-70
2021/11/21 10:55:15;;;;;;;11.43;5.03;;;;;;;12.73;93.95;99500.14;1686183;82;21935;-61
2021/11/21 10:57:43;;;;;;;12.03;4.30;;;;;;;12.61;96.62;99498.27;1684253;83;21063;-62
2021/11/21 11:00:26;;;;;;;10.23;4.57;;;;;;;12.98;96.16;99496.98;1676501;83;21109;-67
2021/11/21 11:02:53;;;;;;;13.20;5.07;;;;;;;12.95;95.31;99496.11;1698005;83;21317;-67
2021/11/21 11:05:22;;;;;;;16.13;5.47;;;;;;;12.77;99.32;99500.03;1667371;84;21354;-62
2021/11/21 11:08:02;;;;;;;14.63;5.90;;;;;;;12.53;100.00;99498.51;1679376;85;21309;-65
2021/11/21 11:10:36;;;;;;;12.43;4.63;;;;;;;12.41;100.00;99507.55;1678561;85;21315;-69
2021/11/21 11:13:12;;;;;;;13.20;4.97;;;;;;;12.20;100.00;99503.19;1679822;85;21341;-61
2021/11/21 11:15:40;;;;;;;13.90;5.57;;;;;;;12.59;100.00;99504.71;1669037;85;21641;-62
2021/11/21 11:18:07;;;;;;;15.13;5.40;;;;;;;12.93;100.00;99492.13;1679155;84;21151;-71
2021/11/21 11:20:49;;;;;;;14.60;5.80;;;;;;;13.03;100.00;99495.84;1678809;84;21791;-62
2021/11/21 11:23:17;;;;;;;15.85;6.08;;;;;;;12.96;100.00;99503.47;1679234;84;21374;-62
2021/11/21 11:25:44;;;;;;;15.57;6.50;;;;;;;12.82;100.00;99508.81;1679522;85;20991;-64
2021/11/21 11:28:25;;;;;;;16.63;6.77;;;;;;;12.84;100.00;99500.74;1675532;85;21359;-70
2021/11/21 11:30:54;;;;;;;11.03;6.27;;;;;;;12.71;100.00;99504.30;1683244;84;21799;-63
2021/11/21 11:33:23;;;;;;;17.30;6.67;;;;;;;12.66;100.00;99503.64;1682976;83;21219;-62
2021/11/21 11:35:53;;;;;;;12.67;6.00;;;;;;;12.08;100.00;99504.38;1678037;83;21781;-72
2021/11/21 11:38:26;;;;;;;15.87;6.70;;;;;;;11.99;100.00;99504.34;1678781;83;21265;-63
2021/11/21 11:40:59;;;;;;;15.50;6.90;;;;;;;12.12;100.00;99504.24;1684031;83;21353;-63
2021/11/21 11:43:38;;;;;;;14.10;7.83;;;;;;;12.43;100.00;99500.03;1678846;85;21860;-73